createdAt,value
2023-03-13T00:01:29.349Z,100146.92
2023-03-13T00:03:56.648Z,100144.56
2023-03-13T00:06:31.702Z,100149.67
2023-03-13T00:09:02.262Z,100146.91
2023-03-13T00:11:29.796Z,100147.29
2023-03-13T00:14:02.339Z,100150.55
2023-03-13T00:16:34.903Z,100153.67
2023-03-13T00:19:04.560Z,100151.04
2023-03-13T00:21:31.969Z,100154.07
2023-03-13T00:24:03.794Z,100157.39
2023-03-13T00:26:31.908Z,100159.94
2023-03-13T00:29:00.045Z,100160.13
2023-03-13T00:31:33.901Z,100163.66
2023-03-13T00:34:03.718Z,100163.05
2023-03-13T00:36:33.904Z,100164.04
2023-03-13T00:39:07.569Z,100169.95
2023-03-13T00:41:36.252Z,100172.00
2023-03-13T00:44:03.951Z,100172.52
2023-03-13T00:46:31.587Z,100171.14
2023-03-13T00:48:58.694Z,100170.84
2023-03-13T00:51:26.684Z,100168.19
2023-03-13T00:53:56.088Z,100169.77
2023-03-13T00:56:24.149Z,100172.65
2023-03-13T00:58:51.318Z,100173.50
2023-03-13T01:01:21.215Z,100169.79
2023-03-13T01:03:51.559Z,100171.88
2023-03-13T01:06:22.294Z,100179.48
2023-03-13T01:08:49.885Z,100181.33
2023-03-13T01:11:20.108Z,100182.48
2023-03-13T01:13:48.728Z,100187.70
2023-03-13T01:16:18.375Z,100188.77
2023-03-13T01:18:52.995Z,100194.86
2023-03-13T01:21:21.878Z,100202.31
2023-03-13T01:23:50.831Z,100210.59
2023-03-13T01:26:18.585Z,100213.27
2023-03-13T01:28:50.488Z,100216.91
2023-03-13T01:31:37.036Z,100221.08
2023-03-13T01:34:09.982Z,100223.67
2023-03-13T01:36:43.496Z,100224.98
2023-03-13T01:39:10.519Z,100229.92
2023-03-13T01:41:42.008Z,100232.86
2023-03-13T01:44:22.129Z,100236.59
2023-03-13T01:46:49.756Z,100244.89
2023-03-13T01:49:35.390Z,100252.02
2023-03-13T01:52:40.758Z,100260.44
2023-03-13T01:55:22.311Z,100267.41
2023-03-13T01:57:54.423Z,100267.05
2023-03-13T02:00:26.750Z,100276.61
2023-03-13T02:03:06.595Z,100283.93
2023-03-13T02:05:36.876Z,100285.66
2023-03-13T02:08:09.057Z,100290.55
2023-03-13T02:10:41.653Z,100292.63
2023-03-13T02:13:13.546Z,100297.37
2023-03-13T02:15:44.522Z,100301.89
2023-03-13T02:18:11.800Z,100307.64
2023-03-13T02:20:40.382Z,100313.27
2023-03-13T02:23:29.166Z,100321.52
2023-03-13T02:25:56.357Z,100323.41
2023-03-13T02:28:38.563Z,100325.45
2023-03-13T02:31:12.337Z,100332.14
2023-03-13T02:33:41.974Z,100335.54
2023-03-13T02:36:13.055Z,100335.23
2023-03-13T02:39:01.424Z,100339.98
2023-03-13T02:41:30.484Z,100342.46
2023-03-13T02:43:58.579Z,100351.60
2023-03-13T02:46:25.564Z,100358.91
2023-03-13T02:48:56.859Z,100367.49
2023-03-13T02:51:42.003Z,100367.04
2023-03-13T02:54:13.746Z,100372.65
2023-03-13T02:56:44.915Z,100374.91
2023-03-13T02:59:12.327Z,100375.91
2023-03-13T03:01:43.448Z,100379.66
2023-03-13T03:04:11.049Z,100385.45
2023-03-13T03:06:42.888Z,100389.88
2023-03-13T03:09:10.408Z,100393.22
2023-03-13T03:11:38.117Z,100399.52
2023-03-13T03:14:08.399Z,100404.87
2023-03-13T03:16:39.348Z,100411.81
2023-03-13T03:19:08.324Z,100409.47
2023-03-13T03:21:35.308Z,100414.08
2023-03-13T03:24:03.164Z,100418.17
2023-03-13T03:26:31.672Z,100420.89
2023-03-13T03:28:58.766Z,100420.15
2023-03-13T03:31:26.633Z,100425.15
2023-03-13T03:33:56.505Z,100430.94
2023-03-13T03:36:23.841Z,100432.55
2023-03-13T03:38:52.015Z,100438.73
2023-03-13T03:41:21.733Z,100446.29
2023-03-13T03:43:48.979Z,100451.63
2023-03-13T03:46:18.062Z,100456.79
2023-03-13T03:48:46.262Z,100463.31
2023-03-13T03:51:14.103Z,100467.36
2023-03-13T03:53:45.838Z,100472.70
2023-03-13T03:56:13.473Z,100476.77
2023-03-13T03:58:44.913Z,100477.67
2023-03-13T04:01:19.180Z,100479.59
2023-03-13T04:03:47.811Z,100483.61
2023-03-13T04:06:15.092Z,100487.94
2023-03-13T04:08:42.433Z,100496.75
2023-03-13T04:11:14.804Z,100504.51
2023-03-13T04:13:46.793Z,100512.14
2023-03-13T04:16:14.074Z,100523.45
2023-03-13T04:18:43.100Z,100523.50
2023-03-13T04:21:11.290Z,100525.27
2023-03-13T04:23:43.467Z,100526.95
2023-03-13T04:26:10.785Z,100527.68
2023-03-13T04:28:39.089Z,100531.90
2023-03-13T04:31:08.196Z,100539.62
2023-03-13T04:33:55.987Z,100545.50
2023-03-13T04:36:55.359Z,100551.94
2023-03-13T04:39:41.557Z,100552.96
2023-03-13T04:42:21.728Z,100550.50
2023-03-13T04:45:12.384Z,100553.45
2023-03-13T04:47:40.876Z,100555.25
2023-03-13T04:50:27.735Z,100560.45
2023-03-13T04:53:18.863Z,100560.23
2023-03-13T04:55:55.076Z,100562.07
2023-03-13T04:58:51.856Z,100568.70
2023-03-13T05:01:39.352Z,100572.88
2023-03-13T05:04:10.788Z,100575.55
2023-03-13T05:07:01.259Z,100583.79
2023-03-13T05:10:00.456Z,100583.79
2023-03-13T05:12:43.361Z,100589.14
2023-03-13T05:15:40.215Z,100594.72
2023-03-13T05:18:34.160Z,100597.75
2023-03-13T05:21:17.896Z,100600.22
2023-03-13T05:24:23.439Z,100604.61
2023-03-13T05:27:07.240Z,100608.94
2023-03-13T05:29:46.656Z,100614.40
2023-03-13T05:32:46.299Z,100622.23
2023-03-13T05:35:24.452Z,100623.27
2023-03-13T05:38:17.811Z,100622.59
2023-03-13T05:41:04.479Z,100628.95
2023-03-13T05:43:54.580Z,100631.73
2023-03-13T05:46:37.055Z,100637.80
2023-03-13T05:49:36.560Z,100640.94
2023-03-13T05:52:39.611Z,100644.66
2023-03-13T05:55:29.761Z,100649.23
2023-03-13T05:58:04.071Z,100650.66
2023-03-13T06:00:51.416Z,100653.86
2023-03-13T06:03:38.244Z,100656.30
2023-03-13T06:06:06.067Z,100658.48
2023-03-13T06:08:39.422Z,100665.30
2023-03-13T06:11:07.335Z,100665.20
2023-03-13T06:13:34.261Z,100659.59
2023-03-13T06:16:10.677Z,100658.08
2023-03-13T06:18:44.559Z,100661.97
2023-03-13T06:21:11.652Z,100660.30
2023-03-13T06:23:38.875Z,100664.60
2023-03-13T06:26:06.183Z,100662.38
2023-03-13T06:28:38.373Z,100673.08
2023-03-13T06:31:07.385Z,100672.17
2023-03-13T06:33:34.514Z,100671.30
2023-03-13T06:36:03.222Z,100670.83
2023-03-13T06:38:30.428Z,100672.83
2023-03-13T06:40:57.755Z,100668.05
2023-03-13T06:43:25.301Z,100672.06
2023-03-13T06:45:52.428Z,100675.09
2023-03-13T06:48:20.984Z,100675.40
2023-03-13T06:50:48.628Z,100672.39
2023-03-13T06:53:19.819Z,100674.83
2023-03-13T06:55:48.576Z,100679.14
2023-03-13T06:58:31.731Z,100686.48
2023-03-13T07:01:09.918Z,100690.55
2023-03-13T07:03:37.627Z,100691.80
2023-03-13T07:06:05.444Z,100692.27
2023-03-13T07:08:32.663Z,100693.01
2023-03-13T07:11:09.693Z,100694.26
2023-03-13T07:13:37.900Z,100691.48
2023-03-13T07:16:10.638Z,100692.89
2023-03-13T07:18:41.689Z,100692.34
2023-03-13T07:21:10.360Z,100695.29
2023-03-13T07:23:37.821Z,100698.58
2023-03-13T07:26:09.584Z,100700.90
2023-03-13T07:28:38.003Z,100707.34
2023-03-13T07:31:13.395Z,100702.95
2023-03-13T07:33:40.732Z,100711.74
2023-03-13T07:36:10.020Z,100715.08
2023-03-13T07:38:37.591Z,100707.17
2023-03-13T07:41:04.867Z,100712.50
2023-03-13T07:43:33.827Z,100709.73
2023-03-13T07:46:02.036Z,100714.16
2023-03-13T07:48:36.307Z,100718.55
2023-03-13T07:51:05.764Z,100722.91
2023-03-13T07:53:33.649Z,100729.94
2023-03-13T07:56:03.752Z,100736.37
2023-03-13T07:58:33.447Z,100736.23
2023-03-13T08:01:00.781Z,100738.36
2023-03-13T08:03:29.526Z,100737.10
2023-03-13T08:05:59.517Z,100737.18
2023-03-13T08:08:29.337Z,100735.33
2023-03-13T08:11:06.596Z,100741.90
2023-03-13T08:13:35.664Z,100742.38
2023-03-13T08:16:03.331Z,100745.92
2023-03-13T08:18:34.289Z,100745.25
2023-03-13T08:21:11.786Z,100748.34
2023-03-13T08:23:39.363Z,100752.73
2023-03-13T08:26:07.416Z,100748.59
2023-03-13T08:28:37.140Z,100750.77
2023-03-13T08:31:11.178Z,100750.34
2023-03-13T08:33:44.678Z,100752.38
2023-03-13T08:36:12.069Z,100757.48
2023-03-13T08:38:46.452Z,100757.19
2023-03-13T08:41:17.419Z,100756.11
2023-03-13T08:43:44.919Z,100752.64
2023-03-13T08:46:12.977Z,100749.52
2023-03-13T08:48:40.562Z,100755.80
2023-03-13T08:51:10.455Z,100762.66
2023-03-13T08:53:41.210Z,100759.42
2023-03-13T08:56:15.317Z,100761.94
2023-03-13T08:58:43.708Z,100763.05
2023-03-13T09:01:13.128Z,100769.82
2023-03-13T09:03:43.713Z,100771.25
2023-03-13T09:06:12.391Z,100772.36
2023-03-13T09:08:40.258Z,100773.63
2023-03-13T09:11:18.013Z,100780.65
2023-03-13T09:13:50.081Z,100783.45
2023-03-13T09:16:19.631Z,100785.21
2023-03-13T09:18:46.976Z,100781.50
2023-03-13T09:21:18.036Z,100785.23
2023-03-13T09:23:47.772Z,100785.47
2023-03-13T09:26:16.238Z,100783.26
2023-03-13T09:28:44.682Z,100780.27
2023-03-13T09:31:13.243Z,100785.94
2023-03-13T09:33:46.565Z,100785.09
2023-03-13T09:36:14.598Z,100787.05
2023-03-13T09:38:41.983Z,100783.89
2023-03-13T09:41:17.852Z,100782.42
2023-03-13T09:43:47.706Z,100784.54
2023-03-13T09:46:23.689Z,100787.14
2023-03-13T09:48:58.146Z,100783.96
2023-03-13T09:51:34.728Z,100783.23
2023-03-13T09:54:04.640Z,100779.18
2023-03-13T09:56:40.520Z,100779.88
2023-03-13T09:59:31.866Z,100780.24
2023-03-13T10:02:01.851Z,100779.36
2023-03-13T10:04:33.865Z,100775.02
2023-03-13T10:07:02.202Z,100768.96
2023-03-13T10:09:32.787Z,100769.84
2023-03-13T10:12:05.653Z,100769.58
2023-03-13T10:15:04.195Z,100769.88
2023-03-13T10:17:40.717Z,100772.05
2023-03-13T10:20:22.894Z,100771.38
2023-03-13T10:22:59.138Z,100770.29
2023-03-13T10:25:34.681Z,100771.20
2023-03-13T10:28:02.544Z,100764.45
2023-03-13T10:30:35.133Z,100771.23
2023-03-13T10:33:07.194Z,100766.75
2023-03-13T10:35:38.636Z,100766.27
2023-03-13T10:38:11.614Z,100766.55
2023-03-13T10:40:43.859Z,100763.27
2023-03-13T10:43:22.405Z,100765.39
2023-03-13T10:45:49.500Z,100764.54
2023-03-13T10:48:22.577Z,100769.88
2023-03-13T10:50:52.841Z,100766.77
2023-03-13T10:53:29.688Z,100766.31
2023-03-13T10:56:13.925Z,100764.02
2023-03-13T10:58:44.872Z,100757.58
2023-03-13T11:01:31.590Z,100758.81
2023-03-13T11:04:20.000Z,100764.65
2023-03-13T11:06:54.392Z,100764.28
2023-03-13T11:09:27.280Z,100762.17
2023-03-13T11:12:01.790Z,100763.61
2023-03-13T11:14:29.232Z,100765.98
2023-03-13T11:17:24.352Z,100770.02
2023-03-13T11:20:23.034Z,100768.13
2023-03-13T11:23:20.945Z,100778.11
2023-03-13T11:26:07.119Z,100770.83
2023-03-13T11:28:42.995Z,100772.98
2023-03-13T11:31:19.151Z,100773.34
2023-03-13T11:34:05.452Z,100768.55
2023-03-13T11:36:34.864Z,100769.06
2023-03-13T11:39:52.725Z,100766.48
2023-03-13T11:42:20.528Z,100769.52
2023-03-13T11:45:00.164Z,100771.25
2023-03-13T11:47:34.371Z,100771.82
2023-03-13T11:50:23.851Z,100773.46
2023-03-13T11:53:00.258Z,100782.17
2023-03-13T11:56:06.531Z,100785.77
2023-03-13T11:58:45.565Z,100781.48
2023-03-13T12:01:15.640Z,100777.79
2023-03-13T12:04:01.382Z,100779.19
2023-03-13T12:06:31.801Z,100784.92
2023-03-13T12:09:11.561Z,100784.92
2023-03-13T12:12:04.131Z,100790.30
2023-03-13T12:14:52.000Z,100787.13
2023-03-13T12:17:31.042Z,100788.80
2023-03-13T12:20:08.882Z,100790.82
2023-03-13T12:22:42.112Z,100797.60
2023-03-13T12:25:18.069Z,100791.21
2023-03-13T12:27:50.470Z,100795.52
2023-03-13T12:30:45.574Z,100793.83
2023-03-13T12:33:24.252Z,100802.75
2023-03-13T12:36:10.833Z,100804.14
2023-03-13T12:39:06.970Z,100811.05
2023-03-13T12:41:43.082Z,100814.80
2023-03-13T12:44:19.768Z,100817.73
2023-03-13T12:46:58.654Z,100813.77
2023-03-13T12:49:47.741Z,100817.46
2023-03-13T12:52:36.364Z,100815.50
2023-03-13T12:55:20.588Z,100822.48
2023-03-13T12:58:06.220Z,100818.13
2023-03-13T13:00:36.048Z,100815.15
2023-03-13T13:03:35.691Z,100812.65
2023-03-13T13:06:05.917Z,100812.33
2023-03-13T13:08:51.893Z,100816.73
2023-03-13T13:11:34.675Z,100816.13
2023-03-13T13:14:18.655Z,100816.15
2023-03-13T13:16:52.011Z,100818.14
2023-03-13T13:19:25.597Z,100817.33
2023-03-13T13:22:30.450Z,100822.98
2023-03-13T13:24:59.568Z,100822.26
2023-03-13T13:27:33.908Z,100823.27
2023-03-13T13:30:19.353Z,100826.96
2023-03-13T13:32:50.296Z,100830.18
2023-03-13T13:35:23.280Z,100826.04
2023-03-13T13:37:51.345Z,100828.56
2023-03-13T13:40:23.601Z,100824.09
2023-03-13T13:42:53.343Z,100822.71
2023-03-13T13:45:22.048Z,100823.09
2023-03-13T13:47:50.633Z,100825.83
2023-03-13T13:50:23.416Z,100828.92
2023-03-13T13:52:51.480Z,100831.80
2023-03-13T13:55:21.465Z,100831.09
2023-03-13T13:57:49.390Z,100836.98
2023-03-13T14:00:21.524Z,100836.05
2023-03-13T14:02:53.368Z,100837.22
2023-03-13T14:05:29.786Z,100831.85
2023-03-13T14:08:04.073Z,100829.98
2023-03-13T14:10:48.470Z,100830.19
2023-03-13T14:13:18.703Z,100831.84
2023-03-13T14:15:54.361Z,100832.35
2023-03-13T14:18:30.058Z,100832.90
2023-03-13T14:20:58.726Z,100831.52
2023-03-13T14:23:46.040Z,100836.10
2023-03-13T14:26:28.399Z,100837.14
2023-03-13T14:29:02.328Z,100836.16
2023-03-13T14:31:38.661Z,100837.97
2023-03-13T14:34:08.724Z,100837.82
2023-03-13T14:37:15.001Z,100835.80
2023-03-13T14:39:48.105Z,100838.14
2023-03-13T14:42:17.191Z,100835.81
2023-03-13T14:44:46.870Z,100833.23
2023-03-13T14:47:26.374Z,100834.45
2023-03-13T14:50:14.352Z,100833.09
2023-03-13T14:52:52.147Z,100835.73
2023-03-13T14:55:22.147Z,100836.54
2023-03-13T14:57:59.670Z,100839.36
2023-03-13T15:00:29.668Z,100842.58
2023-03-13T15:03:19.663Z,100846.01
2023-03-13T15:06:07.104Z,100847.45
2023-03-13T15:08:37.245Z,100851.58
2023-03-13T15:11:54.772Z,100850.22
2023-03-13T15:14:41.103Z,100854.33
2023-03-13T15:17:18.010Z,100859.50
2023-03-13T15:19:50.125Z,100864.59
2023-03-13T15:22:19.617Z,100863.89
2023-03-13T15:25:05.327Z,100866.98
2023-03-13T15:27:35.690Z,100874.92
2023-03-13T15:30:03.414Z,100880.33
2023-03-13T15:32:39.245Z,100877.50
2023-03-13T15:35:25.207Z,100881.64
2023-03-13T15:37:52.847Z,100882.26
2023-03-13T15:40:20.948Z,100889.05
2023-03-13T15:42:48.337Z,100889.69
2023-03-13T15:45:19.390Z,100885.89
2023-03-13T15:47:48.351Z,100888.40
2023-03-13T15:50:18.966Z,100890.77
2023-03-13T15:52:46.193Z,100891.55
2023-03-13T15:55:17.037Z,100898.18
2023-03-13T15:57:49.742Z,100896.52
2023-03-13T16:00:26.470Z,100895.71
2023-03-13T16:02:53.475Z,100899.48
2023-03-13T16:05:20.704Z,100902.83
2023-03-13T16:07:47.951Z,100901.97
2023-03-13T16:10:19.291Z,100905.05
2023-03-13T16:12:48.443Z,100909.27
2023-03-13T16:15:16.906Z,100907.55
2023-03-13T16:17:44.128Z,100908.07
2023-03-13T16:20:20.333Z,100912.70
2023-03-13T16:22:49.661Z,100918.32
2023-03-13T16:25:17.695Z,100923.52
2023-03-13T16:27:45.099Z,100922.09
2023-03-13T16:30:35.916Z,100924.51
2023-03-13T16:33:03.614Z,100928.20
2023-03-13T16:35:31.129Z,100927.64
2023-03-13T16:38:02.369Z,100926.54
2023-03-13T16:40:32.480Z,100925.89
2023-03-13T16:43:00.231Z,100930.63
2023-03-13T16:45:27.920Z,100936.62
2023-03-13T16:47:54.854Z,100933.83
2023-03-13T16:51:00.745Z,100940.54
2023-03-13T16:53:27.873Z,100944.83
2023-03-13T16:55:55.310Z,100946.79
2023-03-13T16:58:23.286Z,100950.35
2023-03-13T17:01:04.293Z,100954.86
2023-03-13T17:03:33.355Z,100953.40
2023-03-13T17:06:00.298Z,100950.90
2023-03-13T17:08:28.024Z,100954.01
2023-03-13T17:10:55.347Z,100956.71
2023-03-13T17:13:23.517Z,100957.43
2023-03-13T17:15:53.280Z,100954.91
2023-03-13T17:18:20.277Z,100954.66
2023-03-13T17:20:47.905Z,100963.58
2023-03-13T17:23:15.219Z,100969.38
2023-03-13T17:25:42.134Z,100972.57
2023-03-13T17:28:13.891Z,100970.48
2023-03-13T17:30:40.892Z,100975.31
2023-03-13T17:33:07.746Z,100975.38
2023-03-13T17:35:35.042Z,100978.68
2023-03-13T17:38:02.590Z,100982.60
2023-03-13T17:40:34.991Z,100983.79
2023-03-13T17:43:03.189Z,100982.45
2023-03-13T17:45:30.390Z,100986.39
2023-03-13T17:47:57.550Z,100988.02
2023-03-13T17:50:26.942Z,100986.33
2023-03-13T17:52:54.731Z,100984.91
2023-03-13T17:55:22.140Z,100987.35
2023-03-13T17:57:49.117Z,100989.80
2023-03-13T18:00:34.590Z,100991.73
2023-03-13T18:03:01.626Z,100995.02
2023-03-13T18:05:29.451Z,100994.30
2023-03-13T18:07:56.925Z,101000.88
2023-03-13T18:10:29.369Z,101005.36
2023-03-13T18:13:00.261Z,101006.06
2023-03-13T18:15:27.482Z,101005.23
2023-03-13T18:17:55.226Z,101005.05
2023-03-13T18:20:27.843Z,101009.22
2023-03-13T18:22:58.791Z,101016.91
2023-03-13T18:25:29.298Z,101016.35
2023-03-13T18:27:56.717Z,101019.33
2023-03-13T18:30:29.931Z,101024.33
2023-03-13T18:32:56.988Z,101026.10
2023-03-13T18:35:23.967Z,101032.42
2023-03-13T18:37:52.793Z,101033.41
2023-03-13T18:40:26.077Z,101034.23
2023-03-13T18:42:57.373Z,101036.08
2023-03-13T18:45:26.187Z,101038.11
2023-03-13T18:47:53.700Z,101040.67
2023-03-13T18:50:25.765Z,101044.42
2023-03-13T18:52:57.292Z,101038.11
2023-03-13T18:55:27.191Z,101042.13
2023-03-13T18:57:55.201Z,101045.21
2023-03-13T19:00:28.178Z,101048.34
2023-03-13T19:02:55.567Z,101053.90
2023-03-13T19:05:23.426Z,101059.35
2023-03-13T19:07:52.281Z,101064.02
2023-03-13T19:10:29.658Z,101066.98
2023-03-13T19:12:57.697Z,101064.90
2023-03-13T19:15:28.416Z,101069.33
2023-03-13T19:17:59.324Z,101071.42
2023-03-13T19:20:27.317Z,101074.30
2023-03-13T19:22:57.554Z,101078.79
2023-03-13T19:25:24.759Z,101081.66
2023-03-13T19:27:51.691Z,101084.98
2023-03-13T19:30:21.888Z,101080.34
2023-03-13T19:32:49.910Z,101081.29
2023-03-13T19:35:18.355Z,101073.57
2023-03-13T19:37:45.645Z,101070.46
2023-03-13T19:40:25.224Z,101076.23
2023-03-13T19:42:52.534Z,101081.18
2023-03-13T19:45:21.394Z,101082.83
2023-03-13T19:47:49.569Z,101082.24
2023-03-13T19:50:21.919Z,101084.27
2023-03-13T19:52:49.000Z,101085.80
2023-03-13T19:55:16.249Z,101086.71
2023-03-13T19:57:44.166Z,101087.59
2023-03-13T20:00:19.846Z,101091.26
2023-03-13T20:02:46.899Z,101089.48
2023-03-13T20:05:14.246Z,101091.70
2023-03-13T20:07:41.178Z,101089.14
2023-03-13T20:10:08.686Z,101089.22
2023-03-13T20:12:35.707Z,101088.21
2023-03-13T20:15:04.532Z,101082.11
2023-03-13T20:17:32.358Z,101081.41
2023-03-13T20:19:59.437Z,101081.61
2023-03-13T20:22:26.368Z,101078.14
2023-03-13T20:24:55.310Z,101078.52
2023-03-13T20:27:22.289Z,101081.16
2023-03-13T20:29:49.373Z,101079.36
2023-03-13T20:32:16.557Z,101081.01
2023-03-13T20:34:43.451Z,101077.39
2023-03-13T20:37:12.096Z,101077.13
2023-03-13T20:39:42.191Z,101077.56
2023-03-13T20:42:09.460Z,101072.80
2023-03-13T20:44:36.454Z,101075.92
2023-03-13T20:47:03.724Z,101076.34
2023-03-13T20:49:30.704Z,101069.39
2023-03-13T20:51:57.744Z,101070.38
2023-03-13T20:54:25.515Z,101072.42
2023-03-13T20:56:52.658Z,101075.75
2023-03-13T20:59:20.137Z,101077.12
2023-03-13T21:01:47.373Z,101075.73
2023-03-13T21:04:16.702Z,101072.86
2023-03-13T21:06:44.103Z,101072.83
2023-03-13T21:09:11.069Z,101071.89
2023-03-13T21:11:39.385Z,101073.44
2023-03-13T21:14:07.382Z,101082.61
2023-03-13T21:16:40.616Z,101084.48
2023-03-13T21:19:07.764Z,101081.43
2023-03-13T21:21:35.152Z,101085.23
2023-03-13T21:24:06.480Z,101078.33
2023-03-13T21:26:34.330Z,101080.02
2023-03-13T21:29:01.873Z,101084.33
2023-03-13T21:31:29.613Z,101083.84
2023-03-13T21:33:56.639Z,101082.73
2023-03-13T21:36:24.716Z,101078.00
2023-03-13T21:38:51.993Z,101075.59
2023-03-13T21:41:24.010Z,101075.02
2023-03-13T21:43:51.546Z,101076.67
2023-03-13T21:46:20.300Z,101078.23
2023-03-13T21:48:52.049Z,101079.89
2023-03-13T21:51:19.591Z,101077.08
2023-03-13T21:53:49.862Z,101081.39
2023-03-13T21:56:17.482Z,101078.36
2023-03-13T21:58:45.085Z,101076.48
2023-03-13T22:01:13.260Z,101074.63
2023-03-13T22:03:40.537Z,101074.26
2023-03-13T22:06:17.777Z,101076.38
2023-03-13T22:08:50.513Z,101079.21
2023-03-13T22:11:21.233Z,101082.60
2023-03-13T22:13:51.028Z,101083.89
2023-03-13T22:16:20.541Z,101086.77
2023-03-13T22:18:52.088Z,101084.65
2023-03-13T22:21:19.330Z,101086.06
2023-03-13T22:23:46.399Z,101088.67
2023-03-13T22:26:14.374Z,101090.21
2023-03-13T22:28:42.577Z,101089.86
2023-03-13T22:31:11.036Z,101090.10
2023-03-13T22:33:38.229Z,101093.29
2023-03-13T22:36:05.767Z,101100.40
2023-03-13T22:38:38.273Z,101098.64
2023-03-13T22:41:08.387Z,101103.48
2023-03-13T22:43:35.432Z,101107.45
2023-03-13T22:46:04.230Z,101109.88
2023-03-13T22:48:31.513Z,101104.36
2023-03-13T22:51:07.304Z,101109.04
2023-03-13T22:53:36.948Z,101109.90
2023-03-13T22:56:09.718Z,101108.33
2023-03-13T22:58:40.109Z,101106.05
2023-03-13T23:01:12.759Z,101101.98
2023-03-13T23:03:40.636Z,101098.34
2023-03-13T23:06:11.071Z,101100.86
2023-03-13T23:08:38.986Z,101107.98
2023-03-13T23:11:07.077Z,101104.65
2023-03-13T23:13:41.720Z,101102.14
2023-03-13T23:16:12.338Z,101105.31
2023-03-13T23:18:41.069Z,101103.59
2023-03-13T23:21:11.681Z,101100.41
2023-03-13T23:23:40.304Z,101103.70
2023-03-13T23:26:09.980Z,101106.73
2023-03-13T23:28:37.791Z,101104.73
2023-03-13T23:31:11.278Z,101103.90
2023-03-13T23:33:39.951Z,101105.33
2023-03-13T23:36:15.599Z,101110.88
2023-03-13T23:38:43.392Z,101108.88
2023-03-13T23:41:12.909Z,101112.65
2023-03-13T23:43:40.834Z,101106.84
2023-03-13T23:46:20.525Z,101101.05
2023-03-13T23:48:48.023Z,101101.51
2023-03-13T23:51:15.000Z,101097.59
2023-03-13T23:53:43.541Z,101093.72
2023-03-13T23:56:11.427Z,101093.67
2023-03-13T23:58:39.596Z,101089.27
